createdAt,value
2024-05-09T00:00:29.930Z,0.00
2024-05-09T00:01:22.986Z,0.00
2024-05-09T00:02:21.852Z,0.00
2024-05-09T00:03:21.881Z,0.00
2024-05-09T00:04:21.892Z,0.00
2024-05-09T00:05:22.037Z,0.00
2024-05-09T00:06:21.749Z,0.00
2024-05-09T00:07:21.776Z,0.00
2024-05-09T00:08:21.819Z,0.00
2024-05-09T00:09:21.718Z,0.00
2024-05-09T00:10:28.582Z,0.00
2024-05-09T00:11:22.950Z,0.00
2024-05-09T00:12:21.880Z,0.00
2024-05-09T00:13:21.669Z,0.00
2024-05-09T00:14:21.834Z,0.00
2024-05-09T00:15:21.671Z,0.00
2024-05-09T00:16:21.665Z,0.00
2024-05-09T00:17:21.784Z,0.00
2024-05-09T00:18:21.800Z,0.00
2024-05-09T00:19:21.715Z,0.00
2024-05-09T00:20:28.107Z,0.00
2024-05-09T00:21:22.618Z,0.00
2024-05-09T00:22:21.573Z,0.00
2024-05-09T00:23:21.654Z,0.00
2024-05-09T00:24:21.556Z,0.00
2024-05-09T00:25:21.543Z,0.00
2024-05-09T00:26:21.560Z,0.00
2024-05-09T00:27:21.518Z,0.00
2024-05-09T00:28:21.527Z,0.00
2024-05-09T00:29:21.578Z,0.00
2024-05-09T00:30:30.669Z,0.00
2024-05-09T00:31:22.516Z,0.00
2024-05-09T00:32:21.675Z,0.00
2024-05-09T00:33:21.729Z,0.00
2024-05-09T00:34:21.640Z,0.00
2024-05-09T00:35:21.552Z,0.00
2024-05-09T00:36:21.414Z,0.00
2024-05-09T00:37:21.412Z,0.00
2024-05-09T00:38:21.521Z,0.00
2024-05-09T00:39:21.380Z,0.00
2024-05-09T00:40:30.836Z,0.00
2024-05-09T00:41:22.438Z,0.00
2024-05-09T00:42:21.351Z,0.00
2024-05-09T00:43:21.341Z,0.00
2024-05-09T00:44:21.367Z,0.00
2024-05-09T00:45:21.319Z,0.00
2024-05-09T00:46:21.307Z,0.00
2024-05-09T00:47:21.492Z,0.00
2024-05-09T00:48:21.738Z,0.00
2024-05-09T00:49:21.452Z,0.00
2024-05-09T00:50:29.448Z,0.00
2024-05-09T00:51:22.331Z,0.00
2024-05-09T00:52:21.280Z,0.00
2024-05-09T00:53:21.413Z,0.00
2024-05-09T00:54:21.247Z,0.00
2024-05-09T00:55:21.204Z,0.00
2024-05-09T00:56:21.251Z,0.00
2024-05-09T00:57:21.196Z,0.00
2024-05-09T00:58:21.187Z,0.00
2024-05-09T00:59:21.284Z,0.00
2024-05-09T01:00:27.326Z,0.00
2024-05-09T01:01:22.224Z,0.00
2024-05-09T01:02:21.241Z,0.00
2024-05-09T01:03:21.606Z,0.00
2024-05-09T01:04:21.134Z,0.00
2024-05-09T01:05:21.221Z,0.00
2024-05-09T01:06:21.080Z,0.00
2024-05-09T01:07:21.074Z,0.00
2024-05-09T01:08:21.302Z,0.00
2024-05-09T01:09:21.058Z,0.00
2024-05-09T01:10:27.535Z,0.00
2024-05-09T01:11:22.140Z,0.00
2024-05-09T01:12:21.199Z,0.00
2024-05-09T01:13:21.086Z,0.00
2024-05-09T01:14:21.035Z,0.00
2024-05-09T01:15:20.978Z,0.00
2024-05-09T01:16:20.988Z,0.00
2024-05-09T01:17:21.059Z,0.00
2024-05-09T01:18:21.220Z,0.00
2024-05-09T01:19:21.057Z,0.00
2024-05-09T01:20:31.750Z,0.00
2024-05-09T01:21:22.018Z,0.00
2024-05-09T01:22:20.915Z,0.00
2024-05-09T01:23:21.050Z,0.00
2024-05-09T01:24:20.879Z,0.00
2024-05-09T01:25:20.940Z,0.00
2024-05-09T01:26:21.071Z,0.00
2024-05-09T01:27:20.847Z,0.00
2024-05-09T01:28:20.832Z,0.00
2024-05-09T01:29:20.981Z,0.00
2024-05-09T01:30:24.589Z,0.00
2024-05-09T01:31:21.831Z,0.00
2024-05-09T01:32:20.939Z,0.00
2024-05-09T01:33:20.919Z,0.00
2024-05-09T01:34:20.880Z,0.00
2024-05-09T01:35:20.825Z,0.00
2024-05-09T01:36:20.741Z,0.00
2024-05-09T01:37:20.734Z,0.00
2024-05-09T01:38:20.767Z,0.00
2024-05-09T01:39:20.708Z,0.00
2024-05-09T01:40:28.556Z,0.00
2024-05-09T01:41:20.743Z,0.00
2024-05-09T01:42:20.675Z,0.00
2024-05-09T01:43:20.667Z,0.00
2024-05-09T01:44:20.708Z,0.00
2024-05-09T01:45:20.647Z,0.00
2024-05-09T01:46:20.641Z,0.00
2024-05-09T01:47:20.841Z,0.00
2024-05-09T01:48:20.702Z,0.00
2024-05-09T01:49:20.688Z,0.00
2024-05-09T01:50:33.024Z,0.00
2024-05-09T01:51:21.724Z,0.00
2024-05-09T01:52:20.576Z,0.00
2024-05-09T01:53:20.599Z,0.00
2024-05-09T01:54:20.543Z,0.00
2024-05-09T01:55:20.548Z,0.00
2024-05-09T01:56:20.572Z,0.00
2024-05-09T01:57:20.508Z,0.00
2024-05-09T01:58:20.503Z,0.00
2024-05-09T01:59:20.550Z,0.00
2024-05-09T02:00:30.239Z,0.00
2024-05-09T02:01:20.510Z,0.00
2024-05-09T02:02:20.677Z,0.00
2024-05-09T02:03:20.596Z,0.00
2024-05-09T02:04:20.686Z,0.00
2024-05-09T02:05:20.489Z,0.00
2024-05-09T02:06:20.440Z,0.00
2024-05-09T02:07:20.423Z,0.00
2024-05-09T02:08:20.678Z,0.00
2024-05-09T02:09:20.375Z,0.00
2024-05-09T02:10:26.207Z,0.00
2024-05-09T02:11:21.464Z,0.00
2024-05-09T02:12:20.474Z,0.00
2024-05-09T02:13:20.327Z,0.00
2024-05-09T02:14:20.376Z,0.00
2024-05-09T02:15:20.318Z,0.00
2024-05-09T02:16:20.297Z,0.00
2024-05-09T02:17:20.389Z,0.00
2024-05-09T02:18:20.423Z,0.00
2024-05-09T02:19:20.477Z,0.00
2024-05-09T02:20:30.076Z,0.00
2024-05-09T02:21:20.260Z,0.00
2024-05-09T02:22:20.231Z,0.00
2024-05-09T02:23:20.285Z,0.00
2024-05-09T02:24:20.211Z,0.00
2024-05-09T02:25:20.200Z,0.00
2024-05-09T02:26:20.291Z,0.00
2024-05-09T02:27:20.177Z,0.00
2024-05-09T02:28:20.172Z,0.00
2024-05-09T02:29:20.194Z,0.00
2024-05-09T02:30:29.897Z,0.00
2024-05-09T02:31:20.140Z,0.00
2024-05-09T02:32:20.202Z,0.00
2024-05-09T02:33:20.344Z,0.00
2024-05-09T02:34:20.172Z,0.00
2024-05-09T02:35:20.099Z,0.00
2024-05-09T02:36:20.076Z,0.00
2024-05-09T02:37:20.075Z,0.00
2024-05-09T02:38:20.190Z,0.00
2024-05-09T02:39:20.057Z,0.00
2024-05-09T02:40:25.737Z,0.00
2024-05-09T02:41:21.247Z,0.00
2024-05-09T02:42:20.014Z,0.00
2024-05-09T02:43:20.001Z,0.00
2024-05-09T02:44:20.102Z,0.00
2024-05-09T02:45:19.975Z,0.00
2024-05-09T02:46:19.972Z,0.00
2024-05-09T02:47:20.135Z,0.00
2024-05-09T02:48:20.123Z,0.00
2024-05-09T02:49:20.060Z,0.00
2024-05-09T02:50:29.592Z,0.00
2024-05-09T02:51:20.943Z,0.00
2024-05-09T02:52:19.910Z,0.00
2024-05-09T02:53:19.961Z,0.00
2024-05-09T02:54:19.883Z,0.00
2024-05-09T02:55:19.891Z,0.00
2024-05-09T02:56:19.893Z,0.00
2024-05-09T02:57:19.855Z,0.00
2024-05-09T02:58:19.830Z,0.00
2024-05-09T02:59:19.865Z,0.00
2024-05-09T03:00:26.289Z,0.00
2024-05-09T03:01:20.854Z,0.00
2024-05-09T03:02:19.850Z,0.00
2024-05-09T03:03:19.948Z,0.00
2024-05-09T03:04:19.823Z,0.00
2024-05-09T03:05:19.792Z,0.00
2024-05-09T03:06:19.761Z,0.00
2024-05-09T03:07:20.326Z,0.00
2024-05-09T03:08:19.757Z,0.00
2024-05-09T03:09:19.712Z,0.00
2024-05-09T03:10:25.551Z,0.00
2024-05-09T03:11:20.830Z,0.00
2024-05-09T03:12:19.717Z,0.00
2024-05-09T03:13:19.755Z,0.00
2024-05-09T03:14:19.736Z,0.00
2024-05-09T03:15:19.646Z,0.00
2024-05-09T03:16:19.638Z,0.00
2024-05-09T03:17:19.738Z,0.00
2024-05-09T03:18:19.807Z,0.00
2024-05-09T03:19:19.979Z,0.00
2024-05-09T03:20:23.953Z,0.00
2024-05-09T03:21:20.720Z,0.00
2024-05-09T03:22:19.624Z,0.00
2024-05-09T03:23:19.730Z,0.00
2024-05-09T03:24:19.587Z,0.00
2024-05-09T03:25:19.539Z,0.00
2024-05-09T03:26:19.648Z,0.00
2024-05-09T03:27:19.546Z,0.00
2024-05-09T03:28:19.506Z,5.62
2024-05-09T03:29:19.516Z,5.62
2024-05-09T03:30:29.570Z,5.62
2024-05-09T03:31:20.500Z,5.62
2024-05-09T03:32:19.630Z,5.62
2024-05-09T03:33:20.587Z,5.62
2024-05-09T03:34:19.486Z,5.62
2024-05-09T03:35:19.551Z,5.62
2024-05-09T03:36:19.424Z,5.62
2024-05-09T03:37:19.407Z,5.62
2024-05-09T03:38:19.442Z,11.25
2024-05-09T03:39:19.393Z,11.25
2024-05-09T03:40:23.704Z,11.25
2024-05-09T03:41:20.427Z,11.25
2024-05-09T03:42:19.355Z,11.25
2024-05-09T03:43:19.651Z,11.25
2024-05-09T03:44:19.355Z,16.88
2024-05-09T03:45:19.321Z,16.88
2024-05-09T03:46:19.335Z,16.88
2024-05-09T03:47:19.487Z,16.88
2024-05-09T03:48:19.634Z,16.88
2024-05-09T03:49:19.460Z,22.50
2024-05-09T03:50:26.287Z,22.50
2024-05-09T03:51:20.408Z,22.50
2024-05-09T03:52:19.247Z,28.12
2024-05-09T03:53:19.343Z,28.12
2024-05-09T03:54:19.247Z,28.12
2024-05-09T03:55:19.207Z,28.12
2024-05-09T03:56:19.306Z,33.75
2024-05-09T03:57:19.190Z,33.75
2024-05-09T03:58:19.245Z,33.75
2024-05-09T03:59:19.328Z,33.75
2024-05-09T04:00:26.553Z,33.75
2024-05-09T04:01:20.241Z,33.75
2024-05-09T04:02:19.318Z,39.38
2024-05-09T04:03:19.485Z,33.75
2024-05-09T04:04:19.140Z,39.38
2024-05-09T04:05:19.170Z,39.38
2024-05-09T04:06:19.096Z,39.38
2024-05-09T04:07:19.081Z,39.38
2024-05-09T04:08:19.151Z,39.38
2024-05-09T04:09:19.059Z,45.00
2024-05-09T04:10:27.692Z,45.00
2024-05-09T04:11:20.179Z,45.00
2024-05-09T04:12:19.142Z,50.62
2024-05-09T04:13:19.027Z,50.62
2024-05-09T04:14:19.064Z,56.25
2024-05-09T04:15:19.006Z,56.25
2024-05-09T04:16:18.983Z,61.88
2024-05-09T04:17:19.072Z,61.88
2024-05-09T04:18:19.053Z,61.88
2024-05-09T04:19:19.095Z,67.50
2024-05-09T04:20:29.063Z,67.50
2024-05-09T04:21:19.960Z,67.50
2024-05-09T04:22:18.937Z,67.50
2024-05-09T04:23:18.945Z,67.50
2024-05-09T04:24:18.949Z,73.12
2024-05-09T04:25:18.920Z,73.12
2024-05-09T04:26:18.901Z,73.12
2024-05-09T04:27:18.868Z,78.75
2024-05-09T04:28:18.851Z,78.75
2024-05-09T04:29:18.900Z,84.38
2024-05-09T04:30:26.227Z,84.38
2024-05-09T04:31:19.861Z,84.38
2024-05-09T04:32:18.959Z,84.38
2024-05-09T04:33:19.081Z,84.38
2024-05-09T04:34:18.924Z,90.00
2024-05-09T04:35:18.791Z,95.62
2024-05-09T04:36:18.762Z,90.00
2024-05-09T04:37:18.751Z,90.00
2024-05-09T04:38:18.853Z,95.62
2024-05-09T04:39:18.727Z,95.62
2024-05-09T04:40:27.789Z,95.62
2024-05-09T04:41:19.812Z,95.62
2024-05-09T04:42:18.693Z,95.62
2024-05-09T04:43:18.788Z,90.00
2024-05-09T04:44:18.701Z,90.00
2024-05-09T04:45:18.667Z,95.62
2024-05-09T04:46:18.669Z,106.88
2024-05-09T04:47:18.753Z,112.50
2024-05-09T04:48:18.786Z,106.88
2024-05-09T04:49:18.772Z,106.88
2024-05-09T04:50:28.917Z,106.88
2024-05-09T04:51:18.604Z,106.88
2024-05-09T04:52:18.581Z,112.50
2024-05-09T04:53:18.697Z,123.75
2024-05-09T04:54:26.224Z,123.75
2024-05-09T04:55:19.578Z,129.38
2024-05-09T04:56:18.543Z,129.38
2024-05-09T04:57:18.532Z,123.75
2024-05-09T04:58:18.513Z,135.00
2024-05-09T04:59:18.555Z,135.00
2024-05-09T05:00:28.093Z,135.00
2024-05-09T05:01:19.530Z,135.00
2024-05-09T05:02:18.551Z,135.00
2024-05-09T05:03:18.772Z,146.25
2024-05-09T05:04:18.566Z,140.62
2024-05-09T05:05:18.538Z,140.62
2024-05-09T05:06:18.429Z,146.25
2024-05-09T05:07:18.422Z,140.62
2024-05-09T05:08:19.344Z,151.88
2024-05-09T05:09:18.391Z,151.88
2024-05-09T05:10:25.308Z,146.25
2024-05-09T05:11:18.466Z,146.25
2024-05-09T05:12:18.470Z,140.62
2024-05-09T05:13:19.315Z,140.62
2024-05-09T05:14:18.391Z,135.00
2024-05-09T05:15:18.324Z,135.00
2024-05-09T05:16:18.329Z,140.62
2024-05-09T05:17:18.463Z,140.62
2024-05-09T05:18:18.879Z,140.62
2024-05-09T05:19:18.496Z,146.25
2024-05-09T05:20:27.167Z,146.25
2024-05-09T05:21:19.561Z,140.62
2024-05-09T05:22:18.256Z,140.62
2024-05-09T05:23:18.371Z,146.25
2024-05-09T05:24:18.387Z,146.25
2024-05-09T05:25:18.220Z,146.25
2024-05-09T05:26:18.261Z,157.50
2024-05-09T05:27:18.219Z,157.50
2024-05-09T05:28:18.189Z,157.50
2024-05-09T05:29:20.835Z,168.75
2024-05-09T05:30:24.824Z,174.38
2024-05-09T05:31:19.259Z,185.62
2024-05-09T05:32:18.405Z,202.50
2024-05-09T05:33:18.789Z,213.75
2024-05-09T05:34:18.122Z,213.75
2024-05-09T05:35:18.203Z,208.12
2024-05-09T05:36:18.101Z,208.12
2024-05-09T05:37:18.094Z,219.38
2024-05-09T05:38:18.270Z,225.00
2024-05-09T05:39:18.092Z,236.25
2024-05-09T05:40:27.891Z,247.50
2024-05-09T05:41:19.135Z,241.88
2024-05-09T05:42:18.031Z,247.50
2024-05-09T05:43:18.186Z,247.50
2024-05-09T05:44:18.109Z,247.50
2024-05-09T05:45:18.002Z,241.88
2024-05-09T05:46:17.986Z,241.88
2024-05-09T05:47:18.051Z,258.75
2024-05-09T05:48:18.511Z,258.75
2024-05-09T05:49:18.100Z,247.50
2024-05-09T05:50:27.264Z,247.50
2024-05-09T05:51:19.162Z,258.75
2024-05-09T05:52:17.927Z,264.38
2024-05-09T05:53:17.956Z,270.00
2024-05-09T05:54:17.923Z,270.00
2024-05-09T05:55:17.891Z,270.00
2024-05-09T05:56:17.948Z,281.25
2024-05-09T05:57:17.883Z,292.50
2024-05-09T05:58:17.868Z,298.12
2024-05-09T05:59:17.925Z,286.88
2024-05-09T06:00:28.588Z,286.88
2024-05-09T06:01:18.886Z,303.75
2024-05-09T06:02:18.044Z,326.25
2024-05-09T06:03:17.875Z,303.75
2024-05-09T06:04:17.855Z,309.38
2024-05-09T06:05:17.811Z,315.00
2024-05-09T06:06:17.767Z,303.75
2024-05-09T06:07:17.771Z,309.38
2024-05-09T06:08:17.812Z,337.50
2024-05-09T06:09:17.739Z,326.25
2024-05-09T06:10:25.114Z,298.12
2024-05-09T06:11:18.810Z,320.62
2024-05-09T06:12:17.810Z,320.62
2024-05-09T06:13:17.702Z,303.75
2024-05-09T06:14:17.778Z,320.62
2024-05-09T06:15:17.671Z,298.12
2024-05-09T06:16:17.655Z,326.25
2024-05-09T06:17:17.771Z,320.62
2024-05-09T06:18:18.033Z,298.12
2024-05-09T06:19:17.715Z,326.25
2024-05-09T06:20:23.895Z,331.88
2024-05-09T06:21:17.736Z,326.25
2024-05-09T06:22:17.604Z,326.25
2024-05-09T06:23:17.637Z,331.88
2024-05-09T06:24:17.575Z,348.75
2024-05-09T06:25:17.558Z,303.75
2024-05-09T06:26:17.587Z,281.25
2024-05-09T06:27:17.535Z,281.25
2024-05-09T06:28:17.524Z,286.88
2024-05-09T06:29:17.659Z,281.25
2024-05-09T06:30:25.414Z,286.88
2024-05-09T06:31:17.493Z,286.88
2024-05-09T06:32:17.529Z,309.38
2024-05-09T06:33:17.900Z,315.00
2024-05-09T06:34:17.599Z,315.00
2024-05-09T06:35:17.504Z,303.75
2024-05-09T06:36:17.462Z,298.12
2024-05-09T06:37:17.434Z,298.12
2024-05-09T06:38:17.464Z,303.75
2024-05-09T06:39:17.429Z,298.12
2024-05-09T06:40:21.462Z,292.50
2024-05-09T06:41:17.427Z,320.62
2024-05-09T06:42:17.380Z,331.88
2024-05-09T06:43:19.185Z,303.75
2024-05-09T06:44:17.400Z,303.75
2024-05-09T06:45:17.374Z,303.75
2024-05-09T06:46:17.333Z,315.00
2024-05-09T06:47:17.437Z,348.75
2024-05-09T06:48:17.382Z,433.12
2024-05-09T06:49:17.435Z,478.12
2024-05-09T06:50:23.836Z,466.88
2024-05-09T06:51:17.496Z,489.38
2024-05-09T06:52:17.261Z,438.75
2024-05-09T06:53:17.488Z,376.88
2024-05-09T06:54:17.257Z,393.75
2024-05-09T06:55:17.245Z,405.00
2024-05-09T06:56:17.272Z,348.75
2024-05-09T06:57:17.211Z,315.00
2024-05-09T06:58:17.194Z,331.88
2024-05-09T06:59:17.208Z,348.75
2024-05-09T07:00:23.099Z,376.88
2024-05-09T07:01:18.261Z,433.12
2024-05-09T07:02:17.239Z,472.50
2024-05-09T07:03:18.784Z,500.62
2024-05-09T07:04:17.234Z,483.75
2024-05-09T07:05:17.267Z,472.50
2024-05-09T07:06:17.147Z,466.88
2024-05-09T07:07:17.101Z,483.75
2024-05-09T07:08:17.344Z,466.88
2024-05-09T07:09:17.079Z,433.12
2024-05-09T07:10:22.164Z,444.38
2024-05-09T07:11:17.144Z,455.62
2024-05-09T07:12:17.179Z,540.00
2024-05-09T07:13:17.033Z,596.25
2024-05-09T07:14:17.094Z,826.88
2024-05-09T07:15:17.017Z,675.00
2024-05-09T07:16:17.052Z,1012.50
2024-05-09T07:17:17.128Z,798.75
2024-05-09T07:18:18.610Z,720.00
2024-05-09T07:19:17.140Z,635.62
2024-05-09T07:20:23.623Z,410.62
2024-05-09T07:21:18.051Z,444.38
2024-05-09T07:22:16.941Z,495.00
2024-05-09T07:23:16.977Z,658.12
2024-05-09T07:24:16.915Z,714.38
2024-05-09T07:25:16.907Z,658.12
2024-05-09T07:26:16.980Z,1108.12
2024-05-09T07:27:16.899Z,973.12
2024-05-09T07:28:16.898Z,883.12
2024-05-09T07:29:16.929Z,1029.38
2024-05-09T07:30:23.519Z,540.00
2024-05-09T07:31:16.835Z,641.25
2024-05-09T07:32:16.906Z,1141.88
2024-05-09T07:33:17.198Z,1153.12
2024-05-09T07:34:17.030Z,1080.00
2024-05-09T07:35:16.895Z,590.62
2024-05-09T07:36:44.252Z,793.12
2024-05-09T07:37:44.249Z,1175.62
2024-05-09T07:38:44.370Z,1203.75
2024-05-09T07:39:44.233Z,1130.62
2024-05-09T07:40:44.276Z,641.25
2024-05-09T07:41:44.255Z,421.88
2024-05-09T07:42:44.213Z,433.12
2024-05-09T07:43:44.207Z,376.88
2024-05-09T07:44:44.252Z,360.00
2024-05-09T07:45:51.317Z,376.88
2024-05-09T07:47:48.025Z,393.75
2024-05-09T07:49:12.731Z,393.75
2024-05-09T07:51:32.162Z,461.25
2024-05-09T07:53:34.367Z,1400.62
2024-05-09T07:53:47.646Z,1451.25
2024-05-09T07:54:44.290Z,686.25
2024-05-09T07:55:44.189Z,697.50
2024-05-09T07:56:44.400Z,731.25
2024-05-09T07:57:44.046Z,1361.25
2024-05-09T07:58:44.033Z,1276.88
2024-05-09T07:59:44.010Z,534.38
2024-05-09T08:00:44.105Z,511.88
2024-05-09T08:01:44.225Z,438.75
2024-05-09T08:02:44.008Z,388.12
2024-05-09T08:03:44.217Z,388.12
2024-05-09T08:04:44.062Z,416.25
2024-05-09T08:05:44.072Z,450.00
2024-05-09T08:06:44.070Z,534.38
2024-05-09T08:07:43.924Z,1243.12
2024-05-09T08:08:43.911Z,1046.25
2024-05-09T08:09:44.026Z,1282.50
2024-05-09T08:10:43.944Z,1276.88
2024-05-09T08:11:43.886Z,1327.50
2024-05-09T08:12:43.930Z,1400.62
2024-05-09T08:13:43.861Z,1445.62
2024-05-09T08:14:43.852Z,1485.00
2024-05-09T08:15:43.923Z,1490.62
2024-05-09T08:16:43.829Z,675.00
2024-05-09T08:17:43.973Z,1254.38
2024-05-09T08:18:43.875Z,1271.25
2024-05-09T08:19:43.877Z,720.00
2024-05-09T08:20:43.776Z,894.38
2024-05-09T08:21:43.845Z,1327.50
2024-05-09T08:22:43.749Z,1344.38
2024-05-09T08:23:43.741Z,1383.75
2024-05-09T08:24:43.792Z,1378.12
2024-05-09T08:25:43.767Z,1400.62
2024-05-09T08:26:43.757Z,1440.00
2024-05-09T08:27:43.730Z,1473.75
2024-05-09T08:28:43.726Z,1456.88
2024-05-09T08:29:43.738Z,1496.25
2024-05-09T08:30:43.802Z,1530.00
2024-05-09T08:31:43.719Z,1541.25
2024-05-09T08:32:43.728Z,1558.12
2024-05-09T08:33:43.860Z,1513.12
2024-05-09T08:34:43.663Z,1518.75
2024-05-09T08:35:43.678Z,1563.75
2024-05-09T08:36:43.678Z,1608.75
2024-05-09T08:37:43.683Z,1597.50
2024-05-09T08:38:43.579Z,1563.75
2024-05-09T08:39:43.643Z,1535.62
2024-05-09T08:40:43.730Z,1530.00
2024-05-09T08:41:43.553Z,1507.50
2024-05-09T08:42:43.575Z,1473.75
2024-05-09T08:43:43.531Z,1451.25
2024-05-09T08:44:43.523Z,1456.88
2024-05-09T08:45:45.055Z,1417.50
2024-05-09T08:46:43.515Z,1428.75
2024-05-09T08:47:43.542Z,1423.12
2024-05-09T08:48:43.638Z,1479.38
2024-05-09T08:49:43.527Z,1485.00
2024-05-09T08:50:43.815Z,1496.25
2024-05-09T08:51:43.486Z,1507.50
2024-05-09T08:52:43.457Z,1518.75
2024-05-09T08:53:43.428Z,1558.12
2024-05-09T08:54:43.495Z,1586.25
2024-05-09T08:55:44.357Z,1586.25
2024-05-09T08:56:43.396Z,1575.00
2024-05-09T08:57:43.432Z,1558.12
2024-05-09T08:58:43.370Z,1535.62
2024-05-09T08:59:43.362Z,1479.38
2024-05-09T09:00:43.613Z,1546.88
2024-05-09T09:01:43.544Z,1552.50
2024-05-09T09:02:43.501Z,1552.50
2024-05-09T09:03:43.648Z,1541.25
2024-05-09T09:04:43.384Z,1552.50
2024-05-09T09:05:43.357Z,1535.62
2024-05-09T09:06:43.343Z,1535.62
2024-05-09T09:07:43.274Z,1535.62
2024-05-09T09:08:43.273Z,1524.38
2024-05-09T09:09:43.302Z,1496.25
2024-05-09T09:10:43.598Z,1479.38
2024-05-09T09:11:43.306Z,1541.25
2024-05-09T09:12:43.330Z,1558.12
2024-05-09T09:13:43.215Z,1552.50
2024-05-09T09:14:43.205Z,1558.12
2024-05-09T09:15:43.262Z,1591.88
2024-05-09T09:16:43.184Z,1614.38
2024-05-09T09:17:43.263Z,1636.88
2024-05-09T09:18:43.370Z,1676.25
2024-05-09T09:19:43.196Z,1704.38
2024-05-09T09:20:43.200Z,1828.12
2024-05-09T09:21:43.163Z,1805.62
2024-05-09T09:22:43.120Z,1738.12
2024-05-09T09:23:43.108Z,1783.12
2024-05-09T09:24:43.132Z,1726.88
2024-05-09T09:25:43.092Z,1670.62
2024-05-09T09:26:43.078Z,1816.88
2024-05-09T09:27:43.115Z,1445.62
2024-05-09T09:28:43.062Z,1170.00
2024-05-09T09:29:43.084Z,1788.75
2024-05-09T09:30:43.345Z,1884.38
2024-05-09T09:31:43.112Z,1861.88
2024-05-09T09:32:43.241Z,1906.88
2024-05-09T09:33:43.374Z,1850.62
2024-05-09T09:34:43.214Z,1451.25
2024-05-09T09:35:43.201Z,1861.88
2024-05-09T09:36:43.168Z,1850.62
2024-05-09T09:37:42.980Z,1743.75
2024-05-09T09:38:42.954Z,1400.62
2024-05-09T09:39:42.990Z,1642.50
2024-05-09T09:40:46.977Z,1327.50
2024-05-09T09:41:43.959Z,1046.25
2024-05-09T09:42:43.019Z,1085.62
2024-05-09T09:43:42.918Z,1192.50
2024-05-09T09:44:47.834Z,765.00
2024-05-09T09:45:42.957Z,714.38
2024-05-09T09:46:42.877Z,894.38
2024-05-09T09:47:43.080Z,1833.75
2024-05-09T09:48:43.034Z,1203.75
2024-05-09T09:49:42.933Z,1693.12
2024-05-09T09:50:42.847Z,1687.50
2024-05-09T09:51:42.907Z,1816.88
2024-05-09T09:52:42.810Z,1794.38
2024-05-09T09:53:42.801Z,1563.75
2024-05-09T09:54:42.798Z,562.50
2024-05-09T09:55:42.779Z,556.88
2024-05-09T09:56:42.767Z,596.25
2024-05-09T09:57:42.778Z,708.75
2024-05-09T09:58:42.759Z,815.62
2024-05-09T09:59:42.744Z,2160.00
2024-05-09T10:00:42.900Z,1113.75
2024-05-09T10:01:42.776Z,894.38
2024-05-09T10:02:42.734Z,736.88
2024-05-09T10:03:42.852Z,703.12
2024-05-09T10:04:42.796Z,894.38
2024-05-09T10:05:45.394Z,1018.12
2024-05-09T10:06:42.718Z,1788.75
2024-05-09T10:07:42.661Z,1096.88
2024-05-09T10:08:42.827Z,720.00
2024-05-09T10:09:42.769Z,630.00
2024-05-09T10:10:42.706Z,596.25
2024-05-09T10:11:49.045Z,601.88
2024-05-09T10:12:42.644Z,607.50
2024-05-09T10:13:42.593Z,596.25
2024-05-09T10:14:42.580Z,613.12
2024-05-09T10:15:42.600Z,697.50
2024-05-09T10:16:42.562Z,1935.00
2024-05-09T10:17:42.620Z,821.25
2024-05-09T10:18:42.778Z,838.12
2024-05-09T10:19:42.541Z,1068.75
2024-05-09T10:20:42.586Z,810.00
2024-05-09T10:21:42.551Z,697.50
2024-05-09T10:22:42.512Z,838.12
2024-05-09T10:23:42.487Z,686.25
2024-05-09T10:24:42.516Z,675.00
2024-05-09T10:25:42.459Z,691.88
2024-05-09T10:26:42.474Z,787.50
2024-05-09T10:27:42.509Z,1288.12
2024-05-09T10:28:42.443Z,2244.38
2024-05-09T10:29:42.417Z,1198.12
2024-05-09T10:30:43.337Z,2165.62
2024-05-09T10:31:42.569Z,2272.50
2024-05-09T10:32:42.607Z,900.00
2024-05-09T10:33:42.665Z,748.12
2024-05-09T10:34:42.388Z,725.62
2024-05-09T10:35:42.365Z,686.25
2024-05-09T10:36:42.364Z,652.50
2024-05-09T10:37:42.338Z,652.50
2024-05-09T10:38:42.340Z,652.50
2024-05-09T10:39:42.442Z,624.38
2024-05-09T10:40:42.467Z,573.75
2024-05-09T10:41:42.292Z,534.38
2024-05-09T10:42:42.291Z,506.25
2024-05-09T10:43:42.273Z,478.12
2024-05-09T10:44:42.294Z,461.25
2024-05-09T10:45:42.293Z,450.00
2024-05-09T10:46:42.271Z,438.75
2024-05-09T10:47:42.373Z,450.00
2024-05-09T10:48:42.362Z,461.25
2024-05-09T10:49:42.241Z,478.12
2024-05-09T10:50:42.196Z,455.62
2024-05-09T10:51:42.233Z,500.62
2024-05-09T10:52:42.178Z,427.50
2024-05-09T10:53:42.161Z,433.12
2024-05-09T10:54:42.232Z,500.62
2024-05-09T10:55:42.146Z,658.12
2024-05-09T10:56:42.224Z,1974.38
2024-05-09T10:57:42.137Z,1946.25
2024-05-09T10:58:42.126Z,1856.25
2024-05-09T10:59:42.103Z,1822.50
2024-05-09T11:00:42.287Z,1867.50
2024-05-09T11:01:42.126Z,1861.88
2024-05-09T11:02:42.218Z,1895.62
2024-05-09T11:03:42.418Z,1901.25
2024-05-09T11:04:42.170Z,1878.75
2024-05-09T11:05:42.094Z,1856.25
2024-05-09T11:06:42.098Z,1867.50
2024-05-09T11:07:42.046Z,1884.38
2024-05-09T11:08:42.055Z,1912.50
2024-05-09T11:09:42.038Z,1901.25
2024-05-09T11:10:42.178Z,1636.88
2024-05-09T11:11:42.065Z,1867.50
2024-05-09T11:12:41.985Z,1935.00
2024-05-09T11:13:41.945Z,1923.75
2024-05-09T11:14:41.959Z,1985.62
2024-05-09T11:15:41.956Z,2036.25
2024-05-09T11:16:41.950Z,2092.50
2024-05-09T11:17:42.038Z,2120.62
2024-05-09T11:18:42.101Z,1299.38
2024-05-09T11:19:41.991Z,1102.50
2024-05-09T11:20:41.925Z,1648.12
2024-05-09T11:21:41.910Z,2086.88
2024-05-09T11:22:41.859Z,1800.00
2024-05-09T11:23:41.998Z,798.75
2024-05-09T11:24:41.849Z,697.50
2024-05-09T11:25:41.827Z,686.25
2024-05-09T11:26:41.846Z,680.62
2024-05-09T11:27:41.854Z,725.62
2024-05-09T11:28:41.799Z,1923.75
2024-05-09T11:29:41.838Z,1963.12
2024-05-09T11:30:41.837Z,2013.75
2024-05-09T11:31:41.877Z,2002.50
2024-05-09T11:32:41.874Z,1963.12
2024-05-09T11:33:42.014Z,2019.38
2024-05-09T11:34:41.803Z,1985.62
2024-05-09T11:35:41.785Z,1996.88
2024-05-09T11:36:41.775Z,2008.12
2024-05-09T11:37:41.737Z,1923.75
2024-05-09T11:38:41.717Z,1833.75
2024-05-09T11:39:41.725Z,1974.38
2024-05-09T11:40:41.859Z,2047.50
2024-05-09T11:41:41.668Z,2115.00
2024-05-09T11:42:41.746Z,2148.75
2024-05-09T11:43:41.648Z,2182.50
2024-05-09T11:44:41.650Z,2182.50
2024-05-09T11:45:41.669Z,2160.00
2024-05-09T11:46:41.624Z,2199.38
2024-05-09T11:47:41.731Z,2244.38
2024-05-09T11:48:41.788Z,1096.88
2024-05-09T11:49:41.665Z,877.50
2024-05-09T11:50:41.638Z,2115.00
2024-05-09T11:51:41.656Z,2109.38
2024-05-09T11:52:41.571Z,2013.75
2024-05-09T11:53:41.551Z,1951.88
2024-05-09T11:54:41.572Z,1980.00
2024-05-09T11:55:41.544Z,1985.62
2024-05-09T11:56:41.527Z,1985.62
2024-05-09T11:57:41.527Z,2008.12
2024-05-09T11:58:41.531Z,748.12
2024-05-09T11:59:41.511Z,1890.00
2024-05-09T12:00:41.607Z,1974.38
2024-05-09T12:01:41.696Z,838.12
2024-05-09T12:02:41.471Z,1912.50
2024-05-09T12:03:41.550Z,1929.38
2024-05-09T12:04:41.662Z,1923.75
2024-05-09T12:05:41.690Z,1890.00
2024-05-09T12:06:41.568Z,1895.62
2024-05-09T12:07:41.665Z,1901.25
2024-05-09T12:08:41.406Z,1918.12
2024-05-09T12:09:41.529Z,1951.88
2024-05-09T12:10:41.735Z,1890.00
2024-05-09T12:11:41.525Z,1968.75
2024-05-09T12:12:41.720Z,1974.38
2024-05-09T12:13:41.421Z,1951.88
2024-05-09T12:14:41.545Z,1890.00
2024-05-09T12:15:41.498Z,1895.62
2024-05-09T12:16:41.767Z,1878.75
2024-05-09T12:17:41.459Z,1867.50
2024-05-09T12:18:41.462Z,1828.12
2024-05-09T12:19:41.346Z,1811.25
2024-05-09T12:20:41.495Z,1777.50
2024-05-09T12:21:41.498Z,1777.50
2024-05-09T12:22:41.412Z,1805.62
2024-05-09T12:23:41.327Z,1766.25
2024-05-09T12:24:41.434Z,1080.00
2024-05-09T12:25:41.366Z,1681.88
2024-05-09T12:26:41.311Z,1721.25
2024-05-09T12:27:41.353Z,731.25
2024-05-09T12:28:41.342Z,708.75
2024-05-09T12:29:41.343Z,725.62
2024-05-09T12:30:41.735Z,798.75
2024-05-09T12:31:41.469Z,1490.62
2024-05-09T12:32:41.516Z,1676.25
2024-05-09T12:33:41.307Z,956.25
2024-05-09T12:34:41.287Z,860.62
2024-05-09T12:35:43.217Z,1389.38
2024-05-09T12:36:41.212Z,1726.88
2024-05-09T12:37:41.186Z,1670.62
2024-05-09T12:38:41.192Z,1687.50
2024-05-09T12:39:41.292Z,1704.38
2024-05-09T12:40:41.331Z,1771.88